sensor_id;sensor_type;location;lat;lon;timestamp;P1;durP1;ratioP1;P2;durP2;ratioP2
23995;SDS011;12207;50.076;8.848;2023-12-04T00:02:16;262.38;;;61.97;;
23995;SDS011;12207;50.076;8.848;2023-12-04T00:04:43;257.38;;;61.13;;
23995;SDS011;12207;50.076;8.848;2023-12-04T00:07:09;259.85;;;61.33;;
23995;SDS011;12207;50.076;8.848;2023-12-04T00:09:35;272.10;;;62.10;;
23995;SDS011;12207;50.076;8.848;2023-12-04T00:12:01;233.45;;;58.90;;
23995;SDS011;12207;50.076;8.848;2023-12-04T00:14:27;251.90;;;61.28;;
23995;SDS011;12207;50.076;8.848;2023-12-04T00:16:53;234.25;;;58.72;;
23995;SDS011;12207;50.076;8.848;2023-12-04T00:19:19;247.73;;;60.83;;
23995;SDS011;12207;50.076;8.848;2023-12-04T00:21:45;246.02;;;59.95;;
23995;SDS011;12207;50.076;8.848;2023-12-04T00:24:12;242.38;;;60.28;;
23995;SDS011;12207;50.076;8.848;2023-12-04T00:26:38;244.13;;;59.95;;
23995;SDS011;12207;50.076;8.848;2023-12-04T00:29:04;237.48;;;59.25;;
23995;SDS011;12207;50.076;8.848;2023-12-04T00:31:30;243.80;;;60.50;;
23995;SDS011;12207;50.076;8.848;2023-12-04T00:33:56;233.30;;;58.55;;
23995;SDS011;12207;50.076;8.848;2023-12-04T00:36:23;262.60;;;62.05;;
23995;SDS011;12207;50.076;8.848;2023-12-04T00:38:49;263.05;;;62.08;;
23995;SDS011;12207;50.076;8.848;2023-12-04T00:41:15;239.65;;;59.95;;
23995;SDS011;12207;50.076;8.848;2023-12-04T00:43:41;243.40;;;59.92;;
23995;SDS011;12207;50.076;8.848;2023-12-04T00:46:07;253.85;;;60.72;;
23995;SDS011;12207;50.076;8.848;2023-12-04T00:48:33;241.43;;;60.45;;
23995;SDS011;12207;50.076;8.848;2023-12-04T00:50:59;238.25;;;59.30;;
23995;SDS011;12207;50.076;8.848;2023-12-04T00:53:28;242.82;;;60.15;;
23995;SDS011;12207;50.076;8.848;2023-12-04T00:55:54;231.00;;;58.65;;
23995;SDS011;12207;50.076;8.848;2023-12-04T00:58:20;242.63;;;59.53;;
23995;SDS011;12207;50.076;8.848;2023-12-04T01:00:46;265.65;;;62.83;;
23995;SDS011;12207;50.076;8.848;2023-12-04T01:03:13;262.25;;;61.90;;
23995;SDS011;12207;50.076;8.848;2023-12-04T01:05:40;241.60;;;59.80;;
23995;SDS011;12207;50.076;8.848;2023-12-04T01:08:06;264.75;;;61.92;;
23995;SDS011;12207;50.076;8.848;2023-12-04T01:10:32;239.35;;;59.25;;
23995;SDS011;12207;50.076;8.848;2023-12-04T01:12:58;248.80;;;59.90;;
23995;SDS011;12207;50.076;8.848;2023-12-04T01:15:24;243.88;;;59.83;;
23995;SDS011;12207;50.076;8.848;2023-12-04T01:17:50;249.38;;;60.15;;
23995;SDS011;12207;50.076;8.848;2023-12-04T01:20:17;241.98;;;59.92;;
23995;SDS011;12207;50.076;8.848;2023-12-04T01:22:43;249.32;;;60.35;;
23995;SDS011;12207;50.076;8.848;2023-12-04T01:25:09;273.10;;;62.80;;
23995;SDS011;12207;50.076;8.848;2023-12-04T01:27:36;257.60;;;60.78;;
23995;SDS011;12207;50.076;8.848;2023-12-04T01:30:02;238.77;;;59.13;;
23995;SDS011;12207;50.076;8.848;2023-12-04T01:32:30;261.45;;;61.25;;
23995;SDS011;12207;50.076;8.848;2023-12-04T01:34:56;227.68;;;58.20;;
23995;SDS011;12207;50.076;8.848;2023-12-04T01:37:22;237.07;;;58.80;;
23995;SDS011;12207;50.076;8.848;2023-12-04T01:39:48;242.00;;;59.60;;
23995;SDS011;12207;50.076;8.848;2023-12-04T01:42:14;228.40;;;57.83;;
23995;SDS011;12207;50.076;8.848;2023-12-04T01:44:40;259.92;;;61.40;;
23995;SDS011;12207;50.076;8.848;2023-12-04T01:47:07;253.25;;;59.88;;
23995;SDS011;12207;50.076;8.848;2023-12-04T01:49:33;251.38;;;60.58;;
23995;SDS011;12207;50.076;8.848;2023-12-04T01:52:00;234.65;;;58.55;;
23995;SDS011;12207;50.076;8.848;2023-12-04T01:54:26;295.70;;;64.40;;
23995;SDS011;12207;50.076;8.848;2023-12-04T01:56:53;233.93;;;58.42;;
23995;SDS011;12207;50.076;8.848;2023-12-04T01:59:20;248.60;;;60.35;;
23995;SDS011;12207;50.076;8.848;2023-12-04T02:01:47;271.27;;;62.47;;
23995;SDS011;12207;50.076;8.848;2023-12-04T02:04:14;247.85;;;60.58;;
23995;SDS011;12207;50.076;8.848;2023-12-04T02:06:40;259.92;;;61.83;;
23995;SDS011;12207;50.076;8.848;2023-12-04T02:09:06;249.27;;;60.08;;
23995;SDS011;12207;50.076;8.848;2023-12-04T02:11:36;242.27;;;60.03;;
23995;SDS011;12207;50.076;8.848;2023-12-04T02:14:04;259.98;;;61.83;;
23995;SDS011;12207;50.076;8.848;2023-12-04T02:16:30;254.35;;;61.05;;
23995;SDS011;12207;50.076;8.848;2023-12-04T02:19:01;254.55;;;60.55;;
23995;SDS011;12207;50.076;8.848;2023-12-04T02:21:28;257.65;;;61.50;;
23995;SDS011;12207;50.076;8.848;2023-12-04T02:23:54;242.90;;;59.70;;
23995;SDS011;12207;50.076;8.848;2023-12-04T02:26:22;250.57;;;60.55;;
23995;SDS011;12207;50.076;8.848;2023-12-04T02:28:58;249.95;;;60.53;;
23995;SDS011;12207;50.076;8.848;2023-12-04T02:31:26;249.95;;;60.42;;
23995;SDS011;12207;50.076;8.848;2023-12-04T02:33:55;237.30;;;58.83;;
23995;SDS011;12207;50.076;8.848;2023-12-04T02:36:24;249.63;;;60.90;;
23995;SDS011;12207;50.076;8.848;2023-12-04T02:38:52;248.48;;;61.08;;
23995;SDS011;12207;50.076;8.848;2023-12-04T02:41:19;262.15;;;61.70;;
23995;SDS011;12207;50.076;8.848;2023-12-04T02:43:45;257.80;;;61.50;;
23995;SDS011;12207;50.076;8.848;2023-12-04T02:46:11;259.35;;;61.50;;
23995;SDS011;12207;50.076;8.848;2023-12-04T02:48:37;258.05;;;61.50;;
23995;SDS011;12207;50.076;8.848;2023-12-04T02:51:04;251.80;;;60.72;;
23995;SDS011;12207;50.076;8.848;2023-12-04T02:53:31;256.85;;;61.65;;
23995;SDS011;12207;50.076;8.848;2023-12-04T02:55:57;249.02;;;60.88;;
23995;SDS011;12207;50.076;8.848;2023-12-04T02:58:23;265.88;;;61.50;;
23995;SDS011;12207;50.076;8.848;2023-12-04T03:00:49;247.68;;;60.03;;
23995;SDS011;12207;50.076;8.848;2023-12-04T03:03:15;241.38;;;59.42;;
23995;SDS011;12207;50.076;8.848;2023-12-04T03:05:41;243.43;;;60.10;;
23995;SDS011;12207;50.076;8.848;2023-12-04T03:08:07;278.48;;;63.85;;
23995;SDS011;12207;50.076;8.848;2023-12-04T03:10:33;251.38;;;60.40;;
23995;SDS011;12207;50.076;8.848;2023-12-04T03:12:59;259.83;;;61.50;;
23995;SDS011;12207;50.076;8.848;2023-12-04T03:15:25;244.15;;;59.60;;
23995;SDS011;12207;50.076;8.848;2023-12-04T03:17:53;246.05;;;59.97;;
23995;SDS011;12207;50.076;8.848;2023-12-04T03:20:20;261.23;;;61.90;;
23995;SDS011;12207;50.076;8.848;2023-12-04T03:22:46;267.95;;;61.97;;
23995;SDS011;12207;50.076;8.848;2023-12-04T03:25:12;255.32;;;61.63;;
23995;SDS011;12207;50.076;8.848;2023-12-04T03:27:38;261.30;;;61.97;;
23995;SDS011;12207;50.076;8.848;2023-12-04T03:30:04;242.73;;;59.20;;
23995;SDS011;12207;50.076;8.848;2023-12-04T03:32:31;253.85;;;60.08;;
23995;SDS011;12207;50.076;8.848;2023-12-04T03:34:57;248.45;;;60.63;;
23995;SDS011;12207;50.076;8.848;2023-12-04T03:37:23;248.80;;;60.60;;
23995;SDS011;12207;50.076;8.848;2023-12-04T03:39:50;243.68;;;60.15;;
23995;SDS011;12207;50.076;8.848;2023-12-04T03:42:16;245.80;;;59.90;;
23995;SDS011;12207;50.076;8.848;2023-12-04T03:44:42;231.80;;;58.80;;
23995;SDS011;12207;50.076;8.848;2023-12-04T03:47:08;261.20;;;61.60;;
23995;SDS011;12207;50.076;8.848;2023-12-04T03:49:34;239.25;;;59.00;;
23995;SDS011;12207;50.076;8.848;2023-12-04T03:52:00;257.38;;;61.28;;
23995;SDS011;12207;50.076;8.848;2023-12-04T03:54:27;287.42;;;63.67;;
23995;SDS011;12207;50.076;8.848;2023-12-04T03:56:53;244.75;;;59.67;;
23995;SDS011;12207;50.076;8.848;2023-12-04T03:59:19;252.18;;;61.33;;
23995;SDS011;12207;50.076;8.848;2023-12-04T04:01:45;250.02;;;61.45;;
23995;SDS011;12207;50.076;8.848;2023-12-04T04:04:11;253.85;;;61.05;;
23995;SDS011;12207;50.076;8.848;2023-12-04T04:06:37;265.73;;;63.33;;
23995;SDS011;12207;50.076;8.848;2023-12-04T04:09:04;256.15;;;61.90;;
23995;SDS011;12207;50.076;8.848;2023-12-04T04:11:30;262.10;;;61.80;;
23995;SDS011;12207;50.076;8.848;2023-12-04T04:13:56;243.18;;;60.30;;
23995;SDS011;12207;50.076;8.848;2023-12-04T04:16:22;252.32;;;60.70;;
23995;SDS011;12207;50.076;8.848;2023-12-04T04:18:49;259.15;;;62.15;;
23995;SDS011;12207;50.076;8.848;2023-12-04T04:21:15;255.57;;;61.60;;
23995;SDS011;12207;50.076;8.848;2023-12-04T04:23:41;256.40;;;61.35;;
23995;SDS011;12207;50.076;8.848;2023-12-04T04:26:07;250.73;;;61.22;;
23995;SDS011;12207;50.076;8.848;2023-12-04T04:28:33;249.88;;;61.28;;
23995;SDS011;12207;50.076;8.848;2023-12-04T04:30:59;252.50;;;61.50;;
23995;SDS011;12207;50.076;8.848;2023-12-04T04:33:25;267.25;;;62.88;;
23995;SDS011;12207;50.076;8.848;2023-12-04T04:35:51;267.40;;;63.65;;
23995;SDS011;12207;50.076;8.848;2023-12-04T04:38:17;241.88;;;60.00;;
23995;SDS011;12207;50.076;8.848;2023-12-04T04:40:43;263.77;;;62.97;;
23995;SDS011;12207;50.076;8.848;2023-12-04T04:43:10;257.17;;;62.78;;
23995;SDS011;12207;50.076;8.848;2023-12-04T04:45:36;248.20;;;60.88;;
23995;SDS011;12207;50.076;8.848;2023-12-04T04:48:02;253.27;;;61.78;;
23995;SDS011;12207;50.076;8.848;2023-12-04T04:50:28;257.10;;;62.40;;
23995;SDS011;12207;50.076;8.848;2023-12-04T04:52:54;259.60;;;62.60;;
23995;SDS011;12207;50.076;8.848;2023-12-04T04:55:20;267.80;;;62.65;;
23995;SDS011;12207;50.076;8.848;2023-12-04T04:57:46;258.67;;;60.80;;
23995;SDS011;12207;50.076;8.848;2023-12-04T05:00:13;240.55;;;60.28;;
23995;SDS011;12207;50.076;8.848;2023-12-04T05:02:41;256.65;;;61.83;;
23995;SDS011;12207;50.076;8.848;2023-12-04T05:05:07;253.63;;;60.97;;
23995;SDS011;12207;50.076;8.848;2023-12-04T05:07:33;272.25;;;63.45;;
23995;SDS011;12207;50.076;8.848;2023-12-04T05:09:59;249.25;;;60.95;;
23995;SDS011;12207;50.076;8.848;2023-12-04T05:12:25;257.60;;;61.72;;
23995;SDS011;12207;50.076;8.848;2023-12-04T05:14:51;247.32;;;60.60;;
23995;SDS011;12207;50.076;8.848;2023-12-04T05:17:17;257.38;;;61.80;;
23995;SDS011;12207;50.076;8.848;2023-12-04T05:19:43;253.55;;;61.58;;
23995;SDS011;12207;50.076;8.848;2023-12-04T05:22:10;257.77;;;61.17;;
23995;SDS011;12207;50.076;8.848;2023-12-04T05:24:36;236.05;;;59.17;;
23995;SDS011;12207;50.076;8.848;2023-12-04T05:27:02;243.63;;;59.75;;
23995;SDS011;12207;50.076;8.848;2023-12-04T05:29:28;293.45;;;66.28;;
23995;SDS011;12207;50.076;8.848;2023-12-04T05:31:54;271.95;;;63.88;;
23995;SDS011;12207;50.076;8.848;2023-12-04T05:34:22;255.85;;;62.22;;
23995;SDS011;12207;50.076;8.848;2023-12-04T05:36:48;255.70;;;61.00;;
23995;SDS011;12207;50.076;8.848;2023-12-04T05:39:14;240.75;;;59.85;;
23995;SDS011;12207;50.076;8.848;2023-12-04T05:41:41;248.80;;;60.15;;
23995;SDS011;12207;50.076;8.848;2023-12-04T05:44:09;232.35;;;58.90;;
23995;SDS011;12207;50.076;8.848;2023-12-04T05:46:38;269.83;;;62.67;;
23995;SDS011;12207;50.076;8.848;2023-12-04T05:49:07;280.70;;;65.15;;
23995;SDS011;12207;50.076;8.848;2023-12-04T05:51:35;257.27;;;62.15;;
23995;SDS011;12207;50.076;8.848;2023-12-04T05:54:11;264.65;;;62.75;;
23995;SDS011;12207;50.076;8.848;2023-12-04T05:56:37;236.90;;;59.85;;
23995;SDS011;12207;50.076;8.848;2023-12-04T05:59:03;252.23;;;61.88;;
23995;SDS011;12207;50.076;8.848;2023-12-04T06:01:32;265.45;;;63.28;;
23995;SDS011;12207;50.076;8.848;2023-12-04T06:03:58;245.10;;;60.45;;
23995;SDS011;12207;50.076;8.848;2023-12-04T06:06:24;249.50;;;60.17;;
23995;SDS011;12207;50.076;8.848;2023-12-04T06:08:52;257.08;;;61.35;;
23995;SDS011;12207;50.076;8.848;2023-12-04T06:11:18;254.20;;;60.53;;
23995;SDS011;12207;50.076;8.848;2023-12-04T06:13:44;245.15;;;60.15;;
23995;SDS011;12207;50.076;8.848;2023-12-04T06:16:10;242.63;;;59.90;;
23995;SDS011;12207;50.076;8.848;2023-12-04T06:18:36;254.27;;;61.05;;
23995;SDS011;12207;50.076;8.848;2023-12-04T06:21:03;244.15;;;60.50;;
23995;SDS011;12207;50.076;8.848;2023-12-04T06:23:29;256.92;;;62.53;;
23995;SDS011;12207;50.076;8.848;2023-12-04T06:25:56;261.45;;;62.90;;
23995;SDS011;12207;50.076;8.848;2023-12-04T06:28:22;248.27;;;61.53;;
23995;SDS011;12207;50.076;8.848;2023-12-04T06:30:49;238.70;;;60.13;;
23995;SDS011;12207;50.076;8.848;2023-12-04T06:33:15;261.33;;;62.30;;
23995;SDS011;12207;50.076;8.848;2023-12-04T06:35:43;242.40;;;60.00;;
23995;SDS011;12207;50.076;8.848;2023-12-04T06:38:09;263.45;;;61.40;;
23995;SDS011;12207;50.076;8.848;2023-12-04T06:40:39;258.17;;;61.20;;
23995;SDS011;12207;50.076;8.848;2023-12-04T06:43:05;237.93;;;59.72;;
23995;SDS011;12207;50.076;8.848;2023-12-04T06:45:32;256.08;;;61.03;;
23995;SDS011;12207;50.076;8.848;2023-12-04T06:47:59;268.73;;;63.75;;
23995;SDS011;12207;50.076;8.848;2023-12-04T06:50:25;241.70;;;60.58;;
23995;SDS011;12207;50.076;8.848;2023-12-04T06:52:52;241.52;;;59.17;;
23995;SDS011;12207;50.076;8.848;2023-12-04T06:55:18;265.23;;;61.83;;
23995;SDS011;12207;50.076;8.848;2023-12-04T06:57:44;236.80;;;59.72;;
23995;SDS011;12207;50.076;8.848;2023-12-04T07:00:11;245.60;;;60.95;;
23995;SDS011;12207;50.076;8.848;2023-12-04T07:02:39;283.00;;;64.80;;
23995;SDS011;12207;50.076;8.848;2023-12-04T07:05:05;245.98;;;59.95;;
23995;SDS011;12207;50.076;8.848;2023-12-04T07:08:12;264.48;;;76.20;;
23995;SDS011;12207;50.076;8.848;2023-12-04T07:10:38;250.48;;;63.15;;
23995;SDS011;12207;50.076;8.848;2023-12-04T07:13:05;248.48;;;63.17;;
23995;SDS011;12207;50.076;8.848;2023-12-04T07:15:31;249.77;;;60.10;;
23995;SDS011;12207;50.076;8.848;2023-12-04T07:17:57;252.80;;;61.78;;
23995;SDS011;12207;50.076;8.848;2023-12-04T07:20:23;270.50;;;64.60;;
23995;SDS011;12207;50.076;8.848;2023-12-04T07:22:49;243.48;;;61.38;;
23995;SDS011;12207;50.076;8.848;2023-12-04T07:25:15;255.07;;;63.10;;
23995;SDS011;12207;50.076;8.848;2023-12-04T07:27:41;246.10;;;62.85;;
23995;SDS011;12207;50.076;8.848;2023-12-04T07:30:07;255.05;;;63.00;;
23995;SDS011;12207;50.076;8.848;2023-12-04T07:32:34;242.68;;;61.72;;
23995;SDS011;12207;50.076;8.848;2023-12-04T07:35:00;249.27;;;60.28;;
23995;SDS011;12207;50.076;8.848;2023-12-04T07:37:26;271.25;;;63.03;;
23995;SDS011;12207;50.076;8.848;2023-12-04T07:39:55;255.35;;;61.15;;
23995;SDS011;12207;50.076;8.848;2023-12-04T07:42:21;254.75;;;60.90;;
23995;SDS011;12207;50.076;8.848;2023-12-04T07:44:48;264.67;;;61.92;;
23995;SDS011;12207;50.076;8.848;2023-12-04T07:47:14;254.07;;;61.30;;
23995;SDS011;12207;50.076;8.848;2023-12-04T07:49:41;259.83;;;61.60;;
23995;SDS011;12207;50.076;8.848;2023-12-04T07:52:10;261.05;;;61.72;;
23995;SDS011;12207;50.076;8.848;2023-12-04T07:54:36;251.82;;;61.55;;
23995;SDS011;12207;50.076;8.848;2023-12-04T07:57:02;256.15;;;61.85;;
23995;SDS011;12207;50.076;8.848;2023-12-04T07:59:29;264.45;;;62.08;;
23995;SDS011;12207;50.076;8.848;2023-12-04T08:01:55;259.63;;;61.83;;
23995;SDS011;12207;50.076;8.848;2023-12-04T08:04:21;260.48;;;62.60;;
23995;SDS011;12207;50.076;8.848;2023-12-04T08:06:48;263.52;;;62.53;;
23995;SDS011;12207;50.076;8.848;2023-12-04T08:09:15;259.08;;;61.88;;
23995;SDS011;12207;50.076;8.848;2023-12-04T08:11:41;237.05;;;59.42;;
23995;SDS011;12207;50.076;8.848;2023-12-04T08:14:08;269.52;;;63.22;;
23995;SDS011;12207;50.076;8.848;2023-12-04T08:16:34;244.60;;;60.40;;
23995;SDS011;12207;50.076;8.848;2023-12-04T08:19:02;243.10;;;60.45;;
23995;SDS011;12207;50.076;8.848;2023-12-04T08:21:49;256.55;;;62.17;;
23995;SDS011;12207;50.076;8.848;2023-12-04T08:24:18;249.68;;;60.55;;
23995;SDS011;12207;50.076;8.848;2023-12-04T08:26:45;269.30;;;64.00;;
23995;SDS011;12207;50.076;8.848;2023-12-04T08:29:11;266.98;;;63.78;;
23995;SDS011;12207;50.076;8.848;2023-12-04T08:31:37;245.90;;;60.45;;
23995;SDS011;12207;50.076;8.848;2023-12-04T08:34:03;271.00;;;64.53;;
23995;SDS011;12207;50.076;8.848;2023-12-04T08:36:29;252.02;;;62.10;;
23995;SDS011;12207;50.076;8.848;2023-12-04T08:38:56;261.55;;;63.72;;
23995;SDS011;12207;50.076;8.848;2023-12-04T08:41:22;288.70;;;65.55;;
23995;SDS011;12207;50.076;8.848;2023-12-04T08:43:48;280.13;;;64.32;;
23995;SDS011;12207;50.076;8.848;2023-12-04T08:46:14;277.17;;;64.47;;
23995;SDS011;12207;50.076;8.848;2023-12-04T08:48:40;262.27;;;62.38;;
23995;SDS011;12207;50.076;8.848;2023-12-04T08:51:07;265.38;;;62.80;;
23995;SDS011;12207;50.076;8.848;2023-12-04T08:53:40;268.17;;;63.60;;
23995;SDS011;12207;50.076;8.848;2023-12-04T08:56:06;277.55;;;64.50;;
23995;SDS011;12207;50.076;8.848;2023-12-04T08:58:33;255.13;;;62.03;;
23995;SDS011;12207;50.076;8.848;2023-12-04T09:00:59;263.65;;;63.03;;
23995;SDS011;12207;50.076;8.848;2023-12-04T09:03:25;269.33;;;63.72;;
23995;SDS011;12207;50.076;8.848;2023-12-04T09:05:53;266.70;;;63.28;;
23995;SDS011;12207;50.076;8.848;2023-12-04T09:08:22;265.13;;;62.85;;
23995;SDS011;12207;50.076;8.848;2023-12-04T09:10:50;288.30;;;66.03;;
23995;SDS011;12207;50.076;8.848;2023-12-04T09:13:16;277.63;;;65.57;;
23995;SDS011;12207;50.076;8.848;2023-12-04T09:15:42;275.20;;;65.47;;
23995;SDS011;12207;50.076;8.848;2023-12-04T09:18:09;287.65;;;66.43;;
23995;SDS011;12207;50.076;8.848;2023-12-04T09:20:35;300.70;;;68.70;;
23995;SDS011;12207;50.076;8.848;2023-12-04T09:23:01;282.08;;;67.40;;
23995;SDS011;12207;50.076;8.848;2023-12-04T09:25:27;291.00;;;68.80;;
23995;SDS011;12207;50.076;8.848;2023-12-04T09:27:57;299.65;;;70.10;;
23995;SDS011;12207;50.076;8.848;2023-12-04T09:30:23;276.48;;;67.10;;
23995;SDS011;12207;50.076;8.848;2023-12-04T09:32:50;276.20;;;67.00;;
23995;SDS011;12207;50.076;8.848;2023-12-04T09:35:24;283.95;;;66.70;;
23995;SDS011;12207;50.076;8.848;2023-12-04T09:37:50;285.27;;;68.03;;
23995;SDS011;12207;50.076;8.848;2023-12-04T09:40:16;286.80;;;67.45;;
23995;SDS011;12207;50.076;8.848;2023-12-04T09:42:42;265.10;;;64.95;;
23995;SDS011;12207;50.076;8.848;2023-12-04T09:45:08;275.65;;;66.35;;
23995;SDS011;12207;50.076;8.848;2023-12-04T09:47:35;280.95;;;67.53;;
23995;SDS011;12207;50.076;8.848;2023-12-04T09:50:01;272.25;;;66.15;;
23995;SDS011;12207;50.076;8.848;2023-12-04T09:52:28;284.10;;;69.15;;
23995;SDS011;12207;50.076;8.848;2023-12-04T09:54:55;280.33;;;65.10;;
23995;SDS011;12207;50.076;8.848;2023-12-04T09:57:23;287.73;;;66.70;;
23995;SDS011;12207;50.076;8.848;2023-12-04T09:59:49;283.17;;;66.13;;
23995;SDS011;12207;50.076;8.848;2023-12-04T10:02:17;284.08;;;66.45;;
23995;SDS011;12207;50.076;8.848;2023-12-04T10:04:44;285.95;;;66.35;;
23995;SDS011;12207;50.076;8.848;2023-12-04T10:07:10;280.80;;;66.40;;
23995;SDS011;12207;50.076;8.848;2023-12-04T10:09:36;281.13;;;68.78;;
23995;SDS011;12207;50.076;8.848;2023-12-04T10:12:02;289.15;;;69.55;;
23995;SDS011;12207;50.076;8.848;2023-12-04T10:14:32;266.52;;;65.85;;
23995;SDS011;12207;50.076;8.848;2023-12-04T10:16:58;261.88;;;66.07;;
23995;SDS011;12207;50.076;8.848;2023-12-04T10:19:25;286.67;;;69.22;;
23995;SDS011;12207;50.076;8.848;2023-12-04T10:21:54;269.65;;;66.78;;
23995;SDS011;12207;50.076;8.848;2023-12-04T10:24:27;278.58;;;67.43;;
23995;SDS011;12207;50.076;8.848;2023-12-04T10:27:02;281.35;;;67.57;;
23995;SDS011;12207;50.076;8.848;2023-12-04T10:29:49;264.33;;;65.80;;
23995;SDS011;12207;50.076;8.848;2023-12-04T10:32:20;285.98;;;67.88;;
23995;SDS011;12207;50.076;8.848;2023-12-04T10:34:47;269.05;;;66.82;;
23995;SDS011;12207;50.076;8.848;2023-12-04T10:37:14;290.02;;;69.55;;
23995;SDS011;12207;50.076;8.848;2023-12-04T10:39:45;275.40;;;67.85;;
23995;SDS011;12207;50.076;8.848;2023-12-04T10:44:57;273.08;;;66.30;;
23995;SDS011;12207;50.076;8.848;2023-12-04T10:47:24;275.23;;;67.47;;
23995;SDS011;12207;50.076;8.848;2023-12-04T10:49:54;290.65;;;69.45;;
23995;SDS011;12207;50.076;8.848;2023-12-04T10:52:21;270.73;;;67.22;;
23995;SDS011;12207;50.076;8.848;2023-12-04T10:54:48;279.67;;;67.25;;
23995;SDS011;12207;50.076;8.848;2023-12-04T10:57:22;289.88;;;70.45;;
23995;SDS011;12207;50.076;8.848;2023-12-04T10:59:56;265.48;;;67.05;;
23995;SDS011;12207;50.076;8.848;2023-12-04T11:02:27;284.85;;;69.50;;
23995;SDS011;12207;50.076;8.848;2023-12-04T11:05:08;270.60;;;67.38;;
23995;SDS011;12207;50.076;8.848;2023-12-04T11:07:41;285.35;;;68.90;;
23995;SDS011;12207;50.076;8.848;2023-12-04T11:10:14;276.00;;;67.53;;
23995;SDS011;12207;50.076;8.848;2023-12-04T11:12:44;299.42;;;71.13;;
23995;SDS011;12207;50.076;8.848;2023-12-04T11:15:16;289.70;;;70.80;;
23995;SDS011;12207;50.076;8.848;2023-12-04T11:17:47;286.80;;;68.32;;
23995;SDS011;12207;50.076;8.848;2023-12-04T11:20:18;286.98;;;68.47;;
23995;SDS011;12207;50.076;8.848;2023-12-04T11:22:49;284.80;;;68.97;;
23995;SDS011;12207;50.076;8.848;2023-12-04T11:25:19;292.15;;;76.00;;
23995;SDS011;12207;50.076;8.848;2023-12-04T11:27:48;297.85;;;71.72;;
23995;SDS011;12207;50.076;8.848;2023-12-04T11:30:16;291.05;;;71.00;;
23995;SDS011;12207;50.076;8.848;2023-12-04T11:32:48;292.10;;;72.28;;
23995;SDS011;12207;50.076;8.848;2023-12-04T11:35:15;288.23;;;70.30;;
23995;SDS011;12207;50.076;8.848;2023-12-04T11:37:43;290.92;;;69.97;;
23995;SDS011;12207;50.076;8.848;2023-12-04T11:40:12;303.88;;;72.32;;
23995;SDS011;12207;50.076;8.848;2023-12-04T11:42:41;283.80;;;69.78;;
23995;SDS011;12207;50.076;8.848;2023-12-04T11:45:08;295.55;;;71.25;;
23995;SDS011;12207;50.076;8.848;2023-12-04T11:50:34;289.85;;;70.25;;
23995;SDS011;12207;50.076;8.848;2023-12-04T11:53:00;303.60;;;73.75;;
23995;SDS011;12207;50.076;8.848;2023-12-04T11:55:28;298.05;;;71.43;;
23995;SDS011;12207;50.076;8.848;2023-12-04T11:57:55;279.00;;;69.68;;
23995;SDS011;12207;50.076;8.848;2023-12-04T12:00:23;293.23;;;71.18;;
23995;SDS011;12207;50.076;8.848;2023-12-04T12:05:20;289.75;;;71.28;;
23995;SDS011;12207;50.076;8.848;2023-12-04T12:07:46;295.88;;;70.22;;
23995;SDS011;12207;50.076;8.848;2023-12-04T12:10:13;286.70;;;71.10;;
23995;SDS011;12207;50.076;8.848;2023-12-04T12:12:40;282.73;;;70.47;;
23995;SDS011;12207;50.076;8.848;2023-12-04T12:15:10;282.85;;;72.70;;
23995;SDS011;12207;50.076;8.848;2023-12-04T12:17:37;298.55;;;71.32;;
23995;SDS011;12207;50.076;8.848;2023-12-04T12:20:06;294.70;;;71.07;;
23995;SDS011;12207;50.076;8.848;2023-12-04T12:22:34;282.40;;;69.78;;
23995;SDS011;12207;50.076;8.848;2023-12-04T12:25:07;275.83;;;68.53;;
23995;SDS011;12207;50.076;8.848;2023-12-04T12:27:33;279.20;;;67.83;;
23995;SDS011;12207;50.076;8.848;2023-12-04T12:30:00;276.45;;;68.63;;
23995;SDS011;12207;50.076;8.848;2023-12-04T12:32:28;270.00;;;68.53;;
23995;SDS011;12207;50.076;8.848;2023-12-04T12:34:55;286.73;;;69.80;;
23995;SDS011;12207;50.076;8.848;2023-12-04T12:37:22;275.50;;;67.18;;
23995;SDS011;12207;50.076;8.848;2023-12-04T12:39:48;275.35;;;67.53;;
23995;SDS011;12207;50.076;8.848;2023-12-04T12:42:25;282.02;;;69.03;;
23995;SDS011;12207;50.076;8.848;2023-12-04T12:44:54;272.90;;;67.43;;
23995;SDS011;12207;50.076;8.848;2023-12-04T12:47:24;287.40;;;68.88;;
23995;SDS011;12207;50.076;8.848;2023-12-04T12:49:50;281.85;;;69.60;;
23995;SDS011;12207;50.076;8.848;2023-12-04T12:52:17;281.75;;;70.28;;
23995;SDS011;12207;50.076;8.848;2023-12-04T12:54:44;271.25;;;67.18;;
23995;SDS011;12207;50.076;8.848;2023-12-04T12:57:11;279.25;;;67.57;;
23995;SDS011;12207;50.076;8.848;2023-12-04T12:59:41;275.30;;;67.18;;
23995;SDS011;12207;50.076;8.848;2023-12-04T13:02:07;280.08;;;69.00;;
23995;SDS011;12207;50.076;8.848;2023-12-04T13:04:35;280.13;;;68.03;;
23995;SDS011;12207;50.076;8.848;2023-12-04T13:07:02;264.77;;;68.47;;
23995;SDS011;12207;50.076;8.848;2023-12-04T13:09:30;276.65;;;67.82;;
23995;SDS011;12207;50.076;8.848;2023-12-04T13:11:57;273.27;;;67.78;;
23995;SDS011;12207;50.076;8.848;2023-12-04T13:14:24;273.67;;;70.53;;
23995;SDS011;12207;50.076;8.848;2023-12-04T13:16:50;269.60;;;66.57;;
23995;SDS011;12207;50.076;8.848;2023-12-04T13:19:17;285.67;;;69.25;;
23995;SDS011;12207;50.076;8.848;2023-12-04T13:21:43;257.75;;;66.68;;
23995;SDS011;12207;50.076;8.848;2023-12-04T13:24:10;264.38;;;67.90;;
23995;SDS011;12207;50.076;8.848;2023-12-04T13:26:37;275.80;;;68.32;;
23995;SDS011;12207;50.076;8.848;2023-12-04T13:29:03;290.33;;;68.63;;
23995;SDS011;12207;50.076;8.848;2023-12-04T13:31:31;274.48;;;68.03;;
23995;SDS011;12207;50.076;8.848;2023-12-04T13:33:58;276.25;;;68.47;;
23995;SDS011;12207;50.076;8.848;2023-12-04T13:36:24;272.95;;;68.32;;
23995;SDS011;12207;50.076;8.848;2023-12-04T13:38:52;264.92;;;67.75;;
23995;SDS011;12207;50.076;8.848;2023-12-04T13:41:18;284.67;;;70.53;;
23995;SDS011;12207;50.076;8.848;2023-12-04T13:44:03;271.90;;;67.50;;
23995;SDS011;12207;50.076;8.848;2023-12-04T13:46:29;269.92;;;69.65;;
23995;SDS011;12207;50.076;8.848;2023-12-04T13:48:56;275.02;;;69.03;;
23995;SDS011;12207;50.076;8.848;2023-12-04T13:51:23;278.38;;;69.18;;
23995;SDS011;12207;50.076;8.848;2023-12-04T13:53:50;283.35;;;68.90;;
23995;SDS011;12207;50.076;8.848;2023-12-04T13:56:21;285.30;;;68.68;;
23995;SDS011;12207;50.076;8.848;2023-12-04T13:59:07;273.40;;;66.78;;
23995;SDS011;12207;50.076;8.848;2023-12-04T14:01:42;269.13;;;67.70;;
23995;SDS011;12207;50.076;8.848;2023-12-04T14:04:08;278.42;;;69.20;;
23995;SDS011;12207;50.076;8.848;2023-12-04T14:06:34;289.05;;;71.07;;
23995;SDS011;12207;50.076;8.848;2023-12-04T14:09:01;270.95;;;68.05;;
23995;SDS011;12207;50.076;8.848;2023-12-04T14:11:29;289.05;;;70.03;;
23995;SDS011;12207;50.076;8.848;2023-12-04T14:13:56;265.83;;;67.10;;
23995;SDS011;12207;50.076;8.848;2023-12-04T14:16:22;281.75;;;67.97;;
23995;SDS011;12207;50.076;8.848;2023-12-04T14:18:48;259.90;;;66.75;;